Latest Weather Observations for Leinster

IDW60801

Issued at 4:02 am WST Monday 3 August 2015 (issued every 30 minutes, with the page automatically refreshed every 10 minutes)

About weather observations | Map of weather stations | Latest weather observations for WA | Other Formats
Station Details ID: 012314 Name: LEINSTER AERO Lat: -27.84 Lon: 120.70 Height: 497.0 m
Data from the previous 72 hours. | See also: Recent months at Leinster
Date/Time
WST
Temp
°C
App
Temp
°C
Dew
Point
Rel
Hum
%
Delta-T
°C
Wind Press
QNH
hPa
Press
MSL
hPa
Rain
since 9 am
mm
Dir
 
Spd
km/h
Gust
km/h
Spd
kts
Gust
kts
03/04:00am 4.7 1.7 4.1 96 0.3 ESE 9 13 5 7 1030.9 1030.3 0.0
03/03:30am 4.9 1.9 4.3 96 0.3 ESE 9 15 5 8 1030.8 1030.2 0.0
03/03:00am 4.8 1.9 4.4 97 0.2 ESE 9 13 5 7 1030.7 1030.1 0.0
03/02:30am 5.1 2.2 4.7 97 0.2 ESE 9 13 5 7 1030.6 1030.0 0.0
03/02:00am 5.4 2.1 4.8 96 0.3 ESE 11 13 6 7 1030.8 1030.2 0.0
03/01:30am 5.8 2.9 4.9 94 0.4 ESE 9 13 5 7 1030.9 1030.3 0.0
03/01:00am 6.2 3.0 5.2 93 0.4 SE 11 13 6 7 1030.9 1030.3 0.0
03/12:30am 6.6 3.0 5.2 91 0.6 SE 13 17 7 9 1031.3 1030.6 0.0
03/12:00am 7.0 3.9 5.5 90 0.7 SE 11 15 6 8 1031.3 1030.6 0.0
 
Date/Time
WST
Temp
°C
App
Temp
°C
Dew
Point
Rel
Hum
%
Delta-T
°C
Wind Press
QNH
hPa
Press
MSL
hPa
Rain
since 9 am
mm
Dir
 
Spd
km/h
Gust
km/h
Spd
kts
Gust
kts
02/11:30pm 7.3 4.1 5.3 87 0.9 SE 11 15 6 8 1031.6 1030.9 0.0
02/11:00pm 7.8 4.6 5.1 83 1.2 SE 11 15 6 8 1031.7 1031.1 0.0
02/10:30pm 8.3 4.7 4.9 79 1.6 SE 13 17 7 9 1031.9 1031.3 0.0
02/10:00pm 8.9 5.3 4.9 76 1.8 ESE 13 17 7 9 1031.9 1031.3 0.0
02/09:30pm 9.6 5.6 4.8 72 2.2 SE 15 20 8 11 1031.8 1031.2 0.0
02/09:00pm 10.2 5.8 4.6 68 2.6 ESE 17 22 9 12 1031.4 1030.7 0.0
02/08:30pm 10.8 5.8 4.5 65 2.9 ESE 20 30 11 16 1031.3 1030.6 0.0
02/08:00pm 11.1 6.7 4.8 65 2.9 ESE 17 26 9 14 1031.1 1030.4 0.0
02/07:30pm 11.3 6.0 5.0 65 3.0 ESE 22 32 12 17 1030.6 1030.0 0.0
02/07:00pm 11.3 6.5 4.7 64 3.1 ESE 19 30 10 16 1030.3 1029.7 0.0
02/06:30pm 11.7 6.1 5.3 65 3.0 ESE 24 33 13 18 1029.9 1029.2 0.0
02/06:00pm 11.9 7.2 6.0 67 2.8 ESE 20 28 11 15 1029.5 1028.8 0.0
02/05:30pm 12.1 7.6 6.2 67 2.9 ESE 19 24 10 13 1029.2 1028.5 0.0
02/05:00pm 12.3 8.2 6.4 67 2.9 ESE 17 32 9 17 1028.7 1028.1 0.0
02/04:30pm 12.4 8.0 6.7 68 2.8 ESE 19 30 10 16 1028.5 1027.9 0.0
02/04:00pm 13.1 8.6 6.9 66 3.1 ESE 20 28 11 15 1028.3 1027.7 0.0
02/03:30pm 12.9 8.7 7.6 70 2.7 E 19 28 10 15 1028.3 1027.7 0.0
02/03:00pm 13.4 9.2 7.4 67 3.0 ESE 19 28 10 15 1028.1 1027.4 0.0
02/02:30pm 14.3 10.4 6.9 61 3.7 E 17 28 9 15 1028.0 1027.3 0.0
02/02:00pm 13.4 8.9 7.0 65 3.2 ESE 20 32 11 17 1027.9 1027.2 0.0
02/01:30pm 13.6 8.7 6.7 63 3.4 ESE 22 33 12 18 1027.9 1027.2 0.0
02/01:00pm 13.3 8.8 7.1 66 3.1 ESE 20 33 11 18 1028.1 1027.4 0.0
02/12:30pm 13.3 8.9 7.3 67 3.0 ESE 20 32 11 17 1028.2 1027.6 0.0
02/12:00pm 12.7 8.5 8.2 74 2.3 E 20 32 11 17 1028.4 1027.8 0.0
02/11:40am 11.4 6.8 9.8 90 0.8 ESE 24 37 13 20 1028.7 1028.1 0.0
02/11:30am 11.6 8.2 11.1 97 0.3 ESE 20 32 11 17 1028.8 1028.2 0.0
02/11:12am 11.2 6.4 10.4 95 0.4 ESE 26 35 14 19 1029.1 1028.4 0.0
02/11:00am 12.1 7.8 8.0 76 2.1 ESE 20 33 11 18 1029.0 1028.3 0.0
02/10:30am 11.8 6.5 8.3 79 1.8 ESE 26 37 14 20 1029.0 1028.3 0.0
02/10:08am 12.0 6.7 8.3 78 1.9 ESE 26 39 14 21 1029.0 1028.3 0.0
02/10:00am 12.3 6.6 8.4 77 2.0 ESE 28 39 15 21 1028.8 1028.2 0.0
02/09:33am 11.0 6.8 9.8 92 0.6 ESE 22 35 12 19 1028.7 1028.1 0.0
02/09:30am 10.7 6.1 9.5 92 0.6 ESE 24 35 13 19 1028.6 1028.0 0.0
02/09:28am 10.9 6.3 9.5 91 0.7 ESE 24 35 13 19 1028.7 1028.1 0.0
02/09:15am 10.8 6.8 10.3 97 0.3 SE 22 32 12 17 1028.5 1027.9 0.0
02/09:00am 10.9 6.7 9.8 93 0.6 SE 22 30 12 16 1028.4 1027.8 0.0
02/08:30am 11.6 7.1 8.5 81 1.6 ESE 22 32 12 17 1028.1 1027.4 0.0
02/08:00am 11.2 6.7 8.4 83 1.4 ESE 22 32 12 17 1027.8 1027.1 0.0
02/07:30am 10.8 7.3 8.7 87 1.1 ESE 17 28 9 15 1027.3 1026.6 0.0
02/07:00am 10.5 6.1 8.8 89 0.9 ESE 22 32 12 17 1026.8 1026.1 0.0
02/06:38am 10.5 6.5 9.1 91 0.7 ESE 20 28 11 15 1026.4 1025.8 0.0
02/06:30am 10.4 6.4 9.2 92 0.6 ESE 20 30 11 16 1026.3 1025.6 0.0
02/06:00am 10.3 6.4 9.5 95 0.4 ESE 20 30 11 16 1025.8 1025.1 0.0
02/05:30am 10.7 6.1 9.5 92 0.6 SE 24 32 13 17 1025.4 1024.7 0.0
02/05:00am 10.9 6.3 9.5 91 0.7 ESE 24 32 13 17 1025.0 1024.3 0.0
02/04:30am 11.1 6.9 9.9 92 0.6 ESE 22 30 12 16 1024.7 1023.9 0.0
02/04:00am 11.2 7.5 10.3 94 0.5 ESE 20 30 11 16 1024.4 1023.7 0.0
02/03:30am 11.3 6.9 10.4 94 0.5 ESE 24 37 13 20 1024.3 1023.6 0.0
02/03:00am 11.8 7.4 10.4 91 0.7 SE 24 32 13 17 1024.1 1023.4 0.0
02/02:30am 11.9 7.9 10.3 90 0.8 ESE 22 33 12 18 1024.0 1023.3 0.0
02/02:19am 12.1 8.2 10.8 92 0.7 ESE 22 28 12 15 1023.9 1023.2 0.0
02/02:00am 12.2 8.3 10.9 92 0.7 SE 22 33 12 18 1023.9 1023.2 0.0
02/01:30am 12.3 9.2 11.7 96 0.3 SE 19 26 10 14 1023.8 1023.1 0.0
02/01:03am 12.3 9.1 11.8 97 0.3 SE 20 26 11 14 1023.8 1023.1 0.0
02/01:00am 12.3 9.3 11.8 97 0.3 SE 19 26 10 14 1023.8 1023.1 0.0
02/12:30am 12.5 9.5 12.0 97 0.3 SE 19 26 10 14 1023.5 1022.8 0.0
02/12:00am 12.7 9.6 12.2 97 0.3 SE 20 28 11 15 1023.4 1022.7 0.0
 
Date/Time
WST
Temp
°C
App
Temp
°C
Dew
Point
Rel
Hum
%
Delta-T
°C
Wind Press
QNH
hPa
Press
MSL
hPa
Rain
since 9 am
mm
Dir
 
Spd
km/h
Gust
km/h
Spd
kts
Gust
kts
01/11:30pm 12.7 9.8 12.2 97 0.3 SE 19 24 10 13 1023.4 1022.7 0.0
01/11:25pm 12.7 9.6 12.2 97 0.3 SE 20 26 11 14 1023.4 1022.7 0.0
01/11:16pm 12.6 9.1 12.1 97 0.3 SE 22 33 12 18 1023.4 1022.7 0.0
01/11:00pm 12.9 9.7 12.0 94 0.5 SE 20 28 11 15 1023.4 1022.7 0.0
01/10:30pm 13.5 10.4 12.2 92 0.7 SSE 20 28 11 15 1023.2 1022.5 0.0
01/10:23pm 13.5 10.4 12.1 91 0.8 SE 20 28 11 15 1023.1 1022.4 0.0
01/10:03pm 14.1 11.1 12.5 90 0.9 SE 20 26 11 14 1022.9 1022.1 0.0
01/10:00pm 14.1 11.0 12.3 89 1.0 SE 20 26 11 14 1022.8 1022.0 0.0
01/09:49pm 14.2 10.7 12.2 88 1.1 SSE 22 28 12 15 1022.8 1022.0 0.0
01/09:30pm 14.5 12.2 11.6 83 1.6 SSE 15 22 8 12 1022.7 1021.9 0.0
01/09:00pm 15.0 12.4 10.8 76 2.3 S 15 20 8 11 1022.1 1021.4 0.0
01/08:30pm 15.5 13.6 10.5 72 2.7 S 11 15 6 8 1021.9 1021.2 0.0
01/08:00pm 15.8 13.4 9.9 68 3.2 S 13 19 7 10 1021.6 1020.9 0.0
01/07:30pm 15.9 13.9 10.2 69 3.1 S 11 15 6 8 1021.2 1020.4 0.0
01/07:00pm 15.6 13.7 10.4 71 2.8 SSW 11 13 6 7 1020.7 1019.9 0.0
01/06:30pm 15.9 14.6 10.0 68 3.2 SSW 7 9 4 5 1020.2 1019.5 0.0
01/06:00pm 16.4 14.5 9.1 62 3.9 SSW 9 11 5 6 1019.7 1019.0 0.0
01/05:30pm 17.1 14.3 8.5 57 4.5 SW 13 17 7 9 1019.3 1018.5 0.0
01/05:00pm 17.5 14.3 8.4 55 4.8 SW 15 20 8 11 1018.8 1018.0 0.0
01/04:30pm 17.8 14.6 8.6 55 4.9 SW 15 22 8 12 1018.5 1017.7 0.0
01/04:00pm 18.4 14.6 9.2 55 4.9 SW 19 24 10 13 1018.1 1017.4 0.0
01/03:30pm 18.4 14.4 8.4 52 5.3 WSW 19 24 10 13 1017.7 1016.9 0.0
01/03:00pm 18.8 15.7 8.7 52 5.4 SW 15 22 8 12 1017.4 1016.6 0.0
01/02:30pm 18.1 14.8 9.5 57 4.6 SW 17 26 9 14 1017.4 1016.6 0.0
01/02:00pm 18.5 15.1 9.3 55 4.9 WSW 17 28 9 15 1017.4 1016.6 0.0
01/01:30pm 17.7 15.2 9.8 60 4.3 SW 13 24 7 13 1017.3 1016.5 0.0
01/01:00pm 18.5 15.3 9.8 57 4.7 W 17 22 9 12 1017.4 1016.6 0.0
01/12:30pm 17.5 14.0 10.1 62 4.0 WSW 19 28 10 15 1017.8 1017.1 0.0
01/12:00pm 17.9 14.7 10.0 60 4.3 WSW 17 24 9 13 1018.0 1017.3 0.0
01/11:30am 17.1 14.1 10.7 66 3.5 W 17 24 9 13 1018.1 1017.4 0.0
01/11:00am 17.2 14.5 11.7 70 3.1 WNW 17 24 9 13 1018.4 1017.6 0.0
01/10:30am 15.8 13.6 12.2 79 2.0 W 15 20 8 11 1018.5 1017.7 0.0
01/10:00am 15.8 13.5 12.9 83 1.6 WNW 17 24 9 13 1018.5 1017.7 0.0
01/09:50am 15.4 13.3 12.3 82 1.7 WNW 15 22 8 12 1018.4 1017.6 0.0
01/09:30am 14.5 12.4 13.5 94 0.6 W 17 24 9 13 1018.4 1017.6 0.0
01/09:12am 14.6 12.7 14.3 98 0.2 WNW 17 24 9 13 1018.1 1017.4 0.0
01/09:00am 14.1 13.2 13.8 98 0.2 NW 11 17 6 9 1018.0 1017.3 5.6
01/08:56am 14.2 13.4 13.9 98 0.2 NNW 11 19 6 10 1017.9 1017.2 5.6
01/08:30am 14.7 13.6 14.4 98 0.2 N 13 17 7 9 1017.6 1016.8 5.4
01/08:00am 13.5 12.5 13.3 99 0.1 NNE 11 15 6 8 1017.2 1016.4 5.4
01/07:30am 12.9 11.7 12.7 99 0.1 NE 11 15 6 8 1016.9 1016.6 5.4
01/07:00am 12.3 11.6 12.1 99 0.1 ENE 7 13 4 7 1016.3 1015.9 5.4
01/06:30am 12.3 11.2 12.1 99 0.1 NE 9 11 5 6 1016.0 1015.7 5.4
01/06:00am 12.6 11.6 12.4 99 0.1 ENE 9 13 5 7 1015.7 1015.4 5.2
01/05:49am 12.8 11.5 12.6 99 0.1 E 11 15 6 8 1015.7 1015.4 5.2
01/05:30am 13.1 12.8 12.8 98 0.2 E 6 11 3 6 1015.9 1015.6 5.2
01/05:14am 13.1 12.3 12.8 98 0.2 SE 9 13 5 7 1015.9 1015.6 5.2
01/05:07am 13.1 12.3 12.8 98 0.2 ESE 9 13 5 7 1015.8 1015.5 5.2
01/05:00am 13.1 12.6 12.8 98 0.2 ESE 7 11 4 6 1015.8 1015.5 5.2
01/04:30am 13.2 12.4 12.9 98 0.2 SSE 9 13 5 7 1015.6 1015.3 5.2
01/04:20am 13.2 12.0 12.9 98 0.2 SSE 11 15 6 8 1015.6 1015.3 5.2
01/04:17am 13.2 12.0 12.9 98 0.2 SE 11 15 6 8 1015.5 1015.2 5.2
01/04:01am 13.3 12.5 13.0 98 0.2 S 9 11 5 6 1015.5 1015.2 5.2
01/04:00am 13.2 12.4 12.9 98 0.2 S 9 11 5 6 1015.5 1015.2 5.2
01/03:30am 13.3 11.8 13.0 98 0.2 SE 13 19 7 10 1015.3 1015.0 5.2
01/03:00am 13.4 12.3 13.2 99 0.1 SSE 11 15 6 8 1015.5 1015.2 5.2
01/02:54am 13.5 12.5 13.3 99 0.1 SSE 11 13 6 7 1015.4 1015.1 5.2
01/02:38am 13.4 12.3 13.2 99 0.1 S 11 17 6 9 1015.5 1015.2 5.2
01/02:30am 13.3 11.4 13.1 99 0.1 S 15 22 8 12 1015.7 1015.4 5.2
01/02:21am 13.6 11.8 13.4 99 0.1 SSW 15 20 8 11 1015.7 1015.4 4.6
01/02:20am 13.6 11.8 13.4 99 0.1 SSW 15 20 8 11 1015.7 1015.4 4.6
01/02:00am 13.9 12.6 13.6 98 0.2 ENE 13 17 7 9 1014.8 1014.4 4.2
01/01:30am 14.1 12.8 13.8 98 0.2 ESE 13 20 7 11 1015.1 1014.7 3.8
01/01:00am 14.4 12.9 14.1 98 0.2 SE 15 24 8 13 1015.9 1015.6 2.2
01/12:30am 15.0 14.0 14.5 97 0.3 SSE 13 17 7 9 1016.0 1015.7 1.2
01/12:00am 15.2 14.1 14.4 95 0.5 S 13 19 7 10 1015.8 1015.5 1.0
 
Date/Time
WST
Temp
°C
App
Temp
°C
Dew
Point
Rel
Hum
%
Delta-T
°C
Wind Press
QNH
hPa
Press
MSL
hPa
Rain
since 9 am
mm
Dir
 
Spd
km/h
Gust
km/h
Spd
kts
Gust
kts
31/11:30pm 15.0 15.2 14.7 98 0.2 SSW 7 9 4 5 1015.9 1015.6 1.0
31/11:00pm 15.0 14.8 14.7 98 0.2 SSE 9 11 5 6 1015.8 1015.5 1.0
31/10:30pm 14.8 14.2 14.5 98 0.2 SSW 11 17 6 9 1015.9 1015.6 1.0
31/10:00pm 14.8 13.0 14.5 98 0.2 SSW 17 22 9 12 1015.6 1015.3 1.0
31/09:30pm 14.9 12.8 14.6 98 0.2 SSW 19 26 10 14 1015.3 1015.0 1.0
31/09:00pm 15.2 12.5 14.7 97 0.3 SSW 22 35 12 19 1015.2 1014.9 0.6
31/08:30pm 15.7 12.1 15.2 97 0.3 SSW 28 39 15 21 1014.5 1014.1 0.4
31/08:00pm 17.8 11.4 13.1 74 2.7 SSW 39 56 21 30 1014.3 1013.9 0.0
31/07:58pm 18.1 12.0 13.0 72 2.9 SSW 37 56 20 30 1014.1 1013.7 0.0
31/07:32pm 21.8 17.0 11.8 53 5.7 WNW 28 46 15 25 1013.2 1012.8 0.0
31/07:30pm 22.0 17.1 11.4 51 6.0 WNW 28 46 15 25 1013.3 1012.9 0.0
31/07:25pm 25.0 20.6 7.6 33 9.4 NW 20 43 11 23 1013.1 1012.7 0.0
31/07:00pm 24.7 21.5 6.9 32 9.5 NW 13 17 7 9 1012.3 1011.9 0.0
31/06:30pm 25.4 22.1 6.6 30 10.0 NW 13 17 7 9 1011.9 1011.5 0.0
31/06:00pm 26.1 22.1 6.7 29 10.4 NW 17 24 9 13 1011.7 1011.4 0.0
31/05:30pm 26.7 22.3 6.7 28 10.8 NW 19 26 10 14 1011.5 1011.1 0.0
31/05:00pm 27.5 22.1 6.3 26 11.4 NW 24 37 13 20 1011.2 1010.8 0.0
31/04:30pm 27.8 22.1 6.6 26 11.5 NW 26 35 14 19 1011.2 1010.8 0.0
31/04:00pm 28.5 22.0 6.6 25 11.9 NNW 30 43 16 23 1011.1 1010.7 0.0
31/03:30pm 28.4 22.7 6.5 25 11.8 NW 26 39 14 21 1011.3 1010.9 0.0
31/03:00pm 28.4 22.7 6.5 25 11.9 NW 26 39 14 21 1011.5 1011.1 0.0
31/02:43pm 28.7 22.6 6.7 25 12.0 NNW 28 46 15 25 1011.6 1011.2 0.0
31/02:30pm 29.1 23.1 7.1 25 12.1 NNW 28 41 15 22 1011.6 1011.2 0.0
31/02:00pm 28.5 21.6 7.1 26 11.7 NNW 33 48 18 26 1012.1 1011.7 0.0
31/01:42pm 29.3 22.8 6.7 24 12.3 NNW 30 54 16 29 1012.0 1011.6 0.0
31/01:30pm 28.8 22.1 7.4 26 11.8 NNW 32 46 17 25 1012.3 1011.9 0.0
31/01:10pm 28.7 21.9 6.7 25 12.0 NNW 32 50 17 27 1012.6 1012.2 0.0
31/01:00pm 28.9 22.6 7.5 26 11.8 NNW 30 46 16 25 1012.9 1012.5 0.0
31/12:31pm 28.4 22.4 7.1 26 11.6 NW 28 48 15 26 1013.5 1013.2 0.0
31/12:30pm 28.5 22.9 7.1 26 11.7 NW 26 48 14 26 1013.5 1013.2 0.0
31/12:00pm 28.0 21.7 7.3 27 11.3 NW 30 43 16 23 1014.1 1013.7 0.0
31/11:30am 28.2 22.4 8.0 28 11.2 N 28 43 15 23 1014.5 1014.1 0.0
31/11:00am 27.0 21.1 7.5 29 10.6 NNW 28 37 15 20 1015.1 1014.7 0.0
31/10:30am 25.6 20.1 7.7 32 9.7 NNW 26 33 14 18 1015.5 1015.2 0.0
31/10:00am 24.2 20.0 8.2 36 8.7 NNW 20 32 11 17 1016.2 1015.8 0.0
31/09:30am 24.0 20.9 8.8 38 8.4 NW 15 20 8 11 1016.5 1016.1 0.0
31/09:00am 21.9 18.4 8.8 43 7.1 NW 17 24 9 13 1016.8 1016.4 0.0
31/08:30am 20.5 18.1 8.8 47 6.3 NW 11 17 6 9 1016.7 1016.3 0.0
31/08:00am 18.3 15.7 9.4 56 4.8 NNW 13 17 7 9 1016.6 1016.2 0.0
31/07:30am 16.7 14.2 9.6 63 3.8 N 13 19 7 10 1016.4 1016.0 0.0
31/07:00am 13.0 11.7 11.2 89 1.0 NW 9 17 5 9 1016.5 1016.1 0.0
31/06:30am 12.6 12.1 10.7 88 1.0 W 4 6 2 3 1016.4 1016.0 0.0
31/06:00am 14.5 13.6 11.3 81 1.7 N 7 11 4 6 1016.3 1015.9 0.0
31/05:30am 13.9 14.0 11.4 85 1.4 S 2 9 1 5 1016.3 1015.9 0.0
31/05:00am 14.7 14.2 12.0 84 1.5 N 6 9 3 5 1016.5 1016.1 0.0
31/04:30am 15.4 13.8 12.9 85 1.4 NNE 13 17 7 9 1016.6 1016.2 0.0

Other Formats:

Comma delimited format used in spreadsheet applications
http://www.bom.gov.au/fwo/IDW60801/IDW60801.95448.axf

JavaScript Object Notation format (JSON) in row-major order
http://www.bom.gov.au/fwo/IDW60801/IDW60801.95448.json